sensor_id;sensor_type;location;lat;lon;timestamp;P1;durP1;ratioP1;P2;durP2;ratioP2
25936;SDS011;13733;51.178;4.450;2022-10-16T00:00:32;6.40;;;1.90;;
25936;SDS011;13733;51.178;4.450;2022-10-16T00:03:00;6.25;;;1.77;;
25936;SDS011;13733;51.178;4.450;2022-10-16T00:05:28;2.97;;;1.73;;
25936;SDS011;13733;51.178;4.450;2022-10-16T00:07:54;3.50;;;1.50;;
25936;SDS011;13733;51.178;4.450;2022-10-16T00:10:21;1.65;;;1.55;;
25936;SDS011;13733;51.178;4.450;2022-10-16T00:12:47;2.92;;;1.80;;
25936;SDS011;13733;51.178;4.450;2022-10-16T00:15:13;3.22;;;1.65;;
25936;SDS011;13733;51.178;4.450;2022-10-16T00:17:39;4.75;;;1.80;;
25936;SDS011;13733;51.178;4.450;2022-10-16T00:20:05;2.47;;;1.50;;
25936;SDS011;13733;51.178;4.450;2022-10-16T00:22:31;3.17;;;1.55;;
25936;SDS011;13733;51.178;4.450;2022-10-16T00:24:58;2.83;;;1.60;;
25936;SDS011;13733;51.178;4.450;2022-10-16T00:27:23;5.60;;;1.58;;
25936;SDS011;13733;51.178;4.450;2022-10-16T00:29:51;4.15;;;1.50;;
25936;SDS011;13733;51.178;4.450;2022-10-16T00:32:19;6.15;;;2.00;;
25936;SDS011;13733;51.178;4.450;2022-10-16T00:34:45;5.88;;;1.50;;
25936;SDS011;13733;51.178;4.450;2022-10-16T00:37:11;2.55;;;1.50;;
25936;SDS011;13733;51.178;4.450;2022-10-16T00:39:38;7.88;;;2.03;;
25936;SDS011;13733;51.178;4.450;2022-10-16T00:42:04;1.65;;;1.40;;
25936;SDS011;13733;51.178;4.450;2022-10-16T00:47:10;2.90;;;1.30;;
25936;SDS011;13733;51.178;4.450;2022-10-16T00:49:38;1.67;;;1.40;;
25936;SDS011;13733;51.178;4.450;2022-10-16T00:52:04;2.13;;;1.48;;
25936;SDS011;13733;51.178;4.450;2022-10-16T00:54:31;2.40;;;1.35;;
25936;SDS011;13733;51.178;4.450;2022-10-16T00:56:59;5.10;;;1.40;;
25936;SDS011;13733;51.178;4.450;2022-10-16T00:59:29;3.95;;;1.60;;
25936;SDS011;13733;51.178;4.450;2022-10-16T01:02:00;4.57;;;1.50;;
25936;SDS011;13733;51.178;4.450;2022-10-16T01:04:28;3.58;;;1.30;;
25936;SDS011;13733;51.178;4.450;2022-10-16T01:23:02;4.10;;;1.60;;
25936;SDS011;13733;51.178;4.450;2022-10-16T01:28:15;3.63;;;1.55;;
25936;SDS011;13733;51.178;4.450;2022-10-16T01:30:43;3.42;;;1.50;;
25936;SDS011;13733;51.178;4.450;2022-10-16T01:33:13;2.22;;;1.40;;
25936;SDS011;13733;51.178;4.450;2022-10-16T01:35:46;2.75;;;1.60;;
25936;SDS011;13733;51.178;4.450;2022-10-16T01:38:26;2.78;;;1.30;;
25936;SDS011;13733;51.178;4.450;2022-10-16T01:40:58;4.97;;;1.50;;
25936;SDS011;13733;51.178;4.450;2022-10-16T01:46:05;2.30;;;1.30;;
25936;SDS011;13733;51.178;4.450;2022-10-16T01:48:32;2.80;;;1.42;;
25936;SDS011;13733;51.178;4.450;2022-10-16T01:51:05;5.60;;;1.40;;
25936;SDS011;13733;51.178;4.450;2022-10-16T01:53:35;3.75;;;1.40;;
25936;SDS011;13733;51.178;4.450;2022-10-16T01:56:02;4.43;;;1.40;;
25936;SDS011;13733;51.178;4.450;2022-10-16T01:58:33;6.78;;;1.70;;
25936;SDS011;13733;51.178;4.450;2022-10-16T02:01:02;2.92;;;1.65;;
25936;SDS011;13733;51.178;4.450;2022-10-16T02:03:31;2.35;;;1.60;;
25936;SDS011;13733;51.178;4.450;2022-10-16T02:05:59;2.72;;;1.48;;
25936;SDS011;13733;51.178;4.450;2022-10-16T02:08:27;1.75;;;1.48;;
25936;SDS011;13733;51.178;4.450;2022-10-16T02:10:56;2.85;;;1.45;;
25936;SDS011;13733;51.178;4.450;2022-10-16T02:13:42;2.65;;;1.55;;
25936;SDS011;13733;51.178;4.450;2022-10-16T02:16:15;8.38;;;1.90;;
25936;SDS011;13733;51.178;4.450;2022-10-16T02:18:42;2.90;;;1.38;;
25936;SDS011;13733;51.178;4.450;2022-10-16T02:21:16;1.80;;;1.60;;
25936;SDS011;13733;51.178;4.450;2022-10-16T02:26:27;3.25;;;1.67;;
25936;SDS011;13733;51.178;4.450;2022-10-16T02:28:59;3.85;;;1.45;;
25936;SDS011;13733;51.178;4.450;2022-10-16T02:31:31;3.33;;;1.90;;
25936;SDS011;13733;51.178;4.450;2022-10-16T02:34:00;2.50;;;1.70;;
25936;SDS011;13733;51.178;4.450;2022-10-16T02:36:30;3.33;;;1.60;;
25936;SDS011;13733;51.178;4.450;2022-10-16T02:38:57;3.65;;;1.65;;
25936;SDS011;13733;51.178;4.450;2022-10-16T02:41:25;3.28;;;1.92;;
25936;SDS011;13733;51.178;4.450;2022-10-16T02:43:52;3.58;;;1.60;;
25936;SDS011;13733;51.178;4.450;2022-10-16T02:46:20;3.35;;;1.80;;
25936;SDS011;13733;51.178;4.450;2022-10-16T02:48:46;4.13;;;1.85;;
25936;SDS011;13733;51.178;4.450;2022-10-16T02:51:12;3.78;;;1.63;;
25936;SDS011;13733;51.178;4.450;2022-10-16T02:53:38;3.67;;;1.60;;
25936;SDS011;13733;51.178;4.450;2022-10-16T02:56:03;2.38;;;1.58;;
25936;SDS011;13733;51.178;4.450;2022-10-16T02:58:29;3.90;;;1.85;;
25936;SDS011;13733;51.178;4.450;2022-10-16T03:00:55;5.68;;;1.60;;
25936;SDS011;13733;51.178;4.450;2022-10-16T03:03:21;5.05;;;1.75;;
25936;SDS011;13733;51.178;4.450;2022-10-16T03:05:46;4.95;;;1.83;;
25936;SDS011;13733;51.178;4.450;2022-10-16T03:08:12;4.85;;;1.90;;
25936;SDS011;13733;51.178;4.450;2022-10-16T03:10:38;2.13;;;1.52;;
25936;SDS011;13733;51.178;4.450;2022-10-16T03:13:04;2.40;;;1.80;;
25936;SDS011;13733;51.178;4.450;2022-10-16T03:15:30;4.22;;;1.90;;
25936;SDS011;13733;51.178;4.450;2022-10-16T03:17:58;5.65;;;1.98;;
25936;SDS011;13733;51.178;4.450;2022-10-16T03:20:25;3.35;;;1.90;;
25936;SDS011;13733;51.178;4.450;2022-10-16T03:22:51;3.17;;;1.92;;
25936;SDS011;13733;51.178;4.450;2022-10-16T03:25:17;2.10;;;1.90;;
25936;SDS011;13733;51.178;4.450;2022-10-16T03:27:43;4.15;;;1.88;;
25936;SDS011;13733;51.178;4.450;2022-10-16T03:30:09;3.75;;;2.20;;
25936;SDS011;13733;51.178;4.450;2022-10-16T03:32:36;4.45;;;2.00;;
25936;SDS011;13733;51.178;4.450;2022-10-16T03:35:02;3.72;;;2.08;;
25936;SDS011;13733;51.178;4.450;2022-10-16T03:37:27;5.38;;;2.50;;
25936;SDS011;13733;51.178;4.450;2022-10-16T03:39:53;4.28;;;2.28;;
25936;SDS011;13733;51.178;4.450;2022-10-16T03:42:19;5.88;;;2.22;;
25936;SDS011;13733;51.178;4.450;2022-10-16T03:44:44;4.93;;;1.88;;
25936;SDS011;13733;51.178;4.450;2022-10-16T03:47:10;6.45;;;2.20;;
25936;SDS011;13733;51.178;4.450;2022-10-16T03:49:36;3.58;;;2.08;;
25936;SDS011;13733;51.178;4.450;2022-10-16T03:52:01;4.03;;;2.00;;
25936;SDS011;13733;51.178;4.450;2022-10-16T03:54:27;3.40;;;1.90;;
25936;SDS011;13733;51.178;4.450;2022-10-16T03:56:53;3.33;;;2.08;;
25936;SDS011;13733;51.178;4.450;2022-10-16T03:59:18;5.82;;;1.88;;
25936;SDS011;13733;51.178;4.450;2022-10-16T04:01:44;3.50;;;2.47;;
25936;SDS011;13733;51.178;4.450;2022-10-16T04:04:10;3.22;;;2.20;;
25936;SDS011;13733;51.178;4.450;2022-10-16T04:06:36;3.92;;;1.90;;
25936;SDS011;13733;51.178;4.450;2022-10-16T04:09:01;2.58;;;1.92;;
25936;SDS011;13733;51.178;4.450;2022-10-16T04:11:27;3.17;;;1.77;;
25936;SDS011;13733;51.178;4.450;2022-10-16T04:13:53;6.03;;;2.38;;
25936;SDS011;13733;51.178;4.450;2022-10-16T04:16:18;5.32;;;1.98;;
25936;SDS011;13733;51.178;4.450;2022-10-16T04:18:44;3.92;;;2.20;;
25936;SDS011;13733;51.178;4.450;2022-10-16T04:21:11;4.30;;;2.40;;
25936;SDS011;13733;51.178;4.450;2022-10-16T04:23:36;4.00;;;2.20;;
25936;SDS011;13733;51.178;4.450;2022-10-16T04:26:02;4.05;;;2.03;;
25936;SDS011;13733;51.178;4.450;2022-10-16T04:28:28;5.75;;;2.38;;
25936;SDS011;13733;51.178;4.450;2022-10-16T04:30:54;6.90;;;2.30;;
25936;SDS011;13733;51.178;4.450;2022-10-16T04:33:20;3.53;;;2.13;;
25936;SDS011;13733;51.178;4.450;2022-10-16T04:35:46;4.32;;;2.10;;
25936;SDS011;13733;51.178;4.450;2022-10-16T04:38:13;4.07;;;2.42;;
25936;SDS011;13733;51.178;4.450;2022-10-16T04:40:38;11.05;;;2.83;;
25936;SDS011;13733;51.178;4.450;2022-10-16T04:43:04;5.50;;;2.13;;
25936;SDS011;13733;51.178;4.450;2022-10-16T04:45:30;5.22;;;2.15;;
25936;SDS011;13733;51.178;4.450;2022-10-16T04:47:57;6.10;;;2.42;;
25936;SDS011;13733;51.178;4.450;2022-10-16T04:50:23;6.85;;;2.88;;
25936;SDS011;13733;51.178;4.450;2022-10-16T04:53:03;5.78;;;2.42;;
25936;SDS011;13733;51.178;4.450;2022-10-16T04:55:29;4.40;;;2.20;;
25936;SDS011;13733;51.178;4.450;2022-10-16T04:57:55;4.60;;;2.63;;
25936;SDS011;13733;51.178;4.450;2022-10-16T05:00:23;7.25;;;2.60;;
25936;SDS011;13733;51.178;4.450;2022-10-16T05:02:51;5.53;;;2.60;;
25936;SDS011;13733;51.178;4.450;2022-10-16T05:05:17;3.70;;;2.15;;
25936;SDS011;13733;51.178;4.450;2022-10-16T05:07:45;5.32;;;2.35;;
25936;SDS011;13733;51.178;4.450;2022-10-16T05:10:11;8.15;;;2.50;;
25936;SDS011;13733;51.178;4.450;2022-10-16T05:12:37;8.10;;;2.88;;
25936;SDS011;13733;51.178;4.450;2022-10-16T05:15:02;5.18;;;2.60;;
25936;SDS011;13733;51.178;4.450;2022-10-16T05:17:29;5.07;;;2.42;;
25936;SDS011;13733;51.178;4.450;2022-10-16T05:19:54;3.17;;;2.38;;
25936;SDS011;13733;51.178;4.450;2022-10-16T05:22:20;5.57;;;2.55;;
25936;SDS011;13733;51.178;4.450;2022-10-16T05:24:46;6.45;;;2.50;;
25936;SDS011;13733;51.178;4.450;2022-10-16T05:27:12;5.55;;;2.75;;
25936;SDS011;13733;51.178;4.450;2022-10-16T05:29:44;6.03;;;2.47;;
25936;SDS011;13733;51.178;4.450;2022-10-16T05:32:12;4.88;;;2.47;;
25936;SDS011;13733;51.178;4.450;2022-10-16T05:34:38;3.50;;;2.22;;
25936;SDS011;13733;51.178;4.450;2022-10-16T05:37:04;4.10;;;2.47;;
25936;SDS011;13733;51.178;4.450;2022-10-16T05:39:30;4.22;;;2.47;;
25936;SDS011;13733;51.178;4.450;2022-10-16T05:41:56;5.35;;;2.60;;
25936;SDS011;13733;51.178;4.450;2022-10-16T05:44:22;4.80;;;2.60;;
25936;SDS011;13733;51.178;4.450;2022-10-16T05:46:49;3.50;;;2.20;;
25936;SDS011;13733;51.178;4.450;2022-10-16T05:49:15;4.55;;;2.40;;
25936;SDS011;13733;51.178;4.450;2022-10-16T05:51:41;6.18;;;2.22;;
25936;SDS011;13733;51.178;4.450;2022-10-16T05:54:07;4.13;;;2.50;;
25936;SDS011;13733;51.178;4.450;2022-10-16T05:56:32;6.30;;;2.53;;
25936;SDS011;13733;51.178;4.450;2022-10-16T05:58:58;4.82;;;2.35;;
25936;SDS011;13733;51.178;4.450;2022-10-16T06:01:24;5.40;;;2.60;;
25936;SDS011;13733;51.178;4.450;2022-10-16T06:03:50;4.72;;;2.53;;
25936;SDS011;13733;51.178;4.450;2022-10-16T06:06:18;4.43;;;2.10;;
25936;SDS011;13733;51.178;4.450;2022-10-16T06:08:48;11.68;;;2.30;;
25936;SDS011;13733;51.178;4.450;2022-10-16T06:11:24;6.85;;;2.20;;
25936;SDS011;13733;51.178;4.450;2022-10-16T06:13:53;3.03;;;2.20;;
25936;SDS011;13733;51.178;4.450;2022-10-16T06:16:21;6.10;;;2.35;;
25936;SDS011;13733;51.178;4.450;2022-10-16T06:18:50;5.63;;;2.47;;
25936;SDS011;13733;51.178;4.450;2022-10-16T06:21:17;5.00;;;2.40;;
25936;SDS011;13733;51.178;4.450;2022-10-16T06:23:45;10.07;;;2.70;;
25936;SDS011;13733;51.178;4.450;2022-10-16T06:26:12;5.82;;;2.50;;
25936;SDS011;13733;51.178;4.450;2022-10-16T06:28:40;7.38;;;2.28;;
25936;SDS011;13733;51.178;4.450;2022-10-16T06:31:07;4.90;;;2.20;;
25936;SDS011;13733;51.178;4.450;2022-10-16T06:33:34;5.05;;;2.30;;
25936;SDS011;13733;51.178;4.450;2022-10-16T06:36:02;5.07;;;2.55;;
25936;SDS011;13733;51.178;4.450;2022-10-16T06:38:33;6.78;;;2.40;;
25936;SDS011;13733;51.178;4.450;2022-10-16T06:40:59;7.03;;;2.28;;
25936;SDS011;13733;51.178;4.450;2022-10-16T06:43:26;7.18;;;2.28;;
25936;SDS011;13733;51.178;4.450;2022-10-16T06:45:56;5.10;;;2.55;;
25936;SDS011;13733;51.178;4.450;2022-10-16T06:48:22;7.78;;;2.70;;
25936;SDS011;13733;51.178;4.450;2022-10-16T06:53:21;7.10;;;2.60;;
25936;SDS011;13733;51.178;4.450;2022-10-16T06:55:46;5.68;;;2.55;;
25936;SDS011;13733;51.178;4.450;2022-10-16T06:58:12;3.83;;;2.13;;
25936;SDS011;13733;51.178;4.450;2022-10-16T07:00:38;3.90;;;2.47;;
25936;SDS011;13733;51.178;4.450;2022-10-16T07:03:03;6.50;;;2.40;;
25936;SDS011;13733;51.178;4.450;2022-10-16T07:05:29;5.65;;;2.70;;
25936;SDS011;13733;51.178;4.450;2022-10-16T07:07:56;4.85;;;2.53;;
25936;SDS011;13733;51.178;4.450;2022-10-16T07:10:22;5.97;;;2.58;;
25936;SDS011;13733;51.178;4.450;2022-10-16T07:12:49;4.95;;;2.25;;
25936;SDS011;13733;51.178;4.450;2022-10-16T07:15:15;4.35;;;2.25;;
25936;SDS011;13733;51.178;4.450;2022-10-16T07:17:41;5.90;;;2.33;;
25936;SDS011;13733;51.178;4.450;2022-10-16T07:20:07;7.35;;;2.72;;
25936;SDS011;13733;51.178;4.450;2022-10-16T07:22:33;5.38;;;2.13;;
25936;SDS011;13733;51.178;4.450;2022-10-16T07:24:59;6.15;;;2.42;;
25936;SDS011;13733;51.178;4.450;2022-10-16T07:27:25;5.88;;;2.30;;
25936;SDS011;13733;51.178;4.450;2022-10-16T07:29:51;7.07;;;2.45;;
25936;SDS011;13733;51.178;4.450;2022-10-16T07:32:17;7.15;;;2.65;;
25936;SDS011;13733;51.178;4.450;2022-10-16T07:34:42;4.53;;;2.60;;
25936;SDS011;13733;51.178;4.450;2022-10-16T07:37:09;6.70;;;2.42;;
25936;SDS011;13733;51.178;4.450;2022-10-16T07:39:34;4.50;;;2.42;;
25936;SDS011;13733;51.178;4.450;2022-10-16T07:42:00;5.20;;;2.13;;
25936;SDS011;13733;51.178;4.450;2022-10-16T07:44:26;6.82;;;2.30;;
25936;SDS011;13733;51.178;4.450;2022-10-16T07:46:52;7.65;;;2.38;;
25936;SDS011;13733;51.178;4.450;2022-10-16T07:49:17;8.23;;;2.65;;
25936;SDS011;13733;51.178;4.450;2022-10-16T07:51:43;7.05;;;2.30;;
25936;SDS011;13733;51.178;4.450;2022-10-16T07:54:09;5.38;;;2.35;;
25936;SDS011;13733;51.178;4.450;2022-10-16T07:56:35;4.80;;;2.15;;
25936;SDS011;13733;51.178;4.450;2022-10-16T07:59:01;8.20;;;2.40;;
25936;SDS011;13733;51.178;4.450;2022-10-16T08:01:27;9.18;;;2.40;;
25936;SDS011;13733;51.178;4.450;2022-10-16T08:03:53;3.83;;;2.08;;
25936;SDS011;13733;51.178;4.450;2022-10-16T08:06:19;4.55;;;2.28;;
25936;SDS011;13733;51.178;4.450;2022-10-16T08:08:46;10.50;;;2.30;;
25936;SDS011;13733;51.178;4.450;2022-10-16T08:11:12;5.22;;;2.30;;
25936;SDS011;13733;51.178;4.450;2022-10-16T08:13:40;7.00;;;2.08;;
25936;SDS011;13733;51.178;4.450;2022-10-16T08:16:06;5.72;;;2.10;;
25936;SDS011;13733;51.178;4.450;2022-10-16T08:18:35;5.00;;;1.80;;
25936;SDS011;13733;51.178;4.450;2022-10-16T08:21:03;8.63;;;2.10;;
25936;SDS011;13733;51.178;4.450;2022-10-16T08:23:29;4.72;;;2.00;;
25936;SDS011;13733;51.178;4.450;2022-10-16T08:26:01;7.15;;;2.10;;
25936;SDS011;13733;51.178;4.450;2022-10-16T08:28:29;4.32;;;1.70;;
25936;SDS011;13733;51.178;4.450;2022-10-16T08:30:56;6.72;;;2.00;;
25936;SDS011;13733;51.178;4.450;2022-10-16T08:33:41;8.32;;;2.05;;
25936;SDS011;13733;51.178;4.450;2022-10-16T08:36:09;5.85;;;1.50;;
25936;SDS011;13733;51.178;4.450;2022-10-16T08:38:35;7.15;;;1.85;;
25936;SDS011;13733;51.178;4.450;2022-10-16T08:47:06;10.32;;;1.90;;
25936;SDS011;13733;51.178;4.450;2022-10-16T08:49:58;6.13;;;1.90;;
25936;SDS011;13733;51.178;4.450;2022-10-16T08:52:30;7.00;;;2.25;;
25936;SDS011;13733;51.178;4.450;2022-10-16T08:55:00;8.10;;;1.83;;
25936;SDS011;13733;51.178;4.450;2022-10-16T08:57:27;11.27;;;2.47;;
25936;SDS011;13733;51.178;4.450;2022-10-16T08:59:53;8.57;;;1.98;;
25936;SDS011;13733;51.178;4.450;2022-10-16T09:02:38;6.90;;;1.90;;
25936;SDS011;13733;51.178;4.450;2022-10-16T09:05:16;8.20;;;1.90;;
25936;SDS011;13733;51.178;4.450;2022-10-16T09:08:03;11.10;;;2.08;;
25936;SDS011;13733;51.178;4.450;2022-10-16T09:11:18;5.00;;;1.75;;
25936;SDS011;13733;51.178;4.450;2022-10-16T09:13:59;12.75;;;1.98;;
25936;SDS011;13733;51.178;4.450;2022-10-16T09:16:41;3.85;;;1.50;;
25936;SDS011;13733;51.178;4.450;2022-10-16T09:19:28;5.65;;;1.90;;
25936;SDS011;13733;51.178;4.450;2022-10-16T09:22:00;8.00;;;2.33;;
25936;SDS011;13733;51.178;4.450;2022-10-16T09:24:34;7.15;;;2.08;;
25936;SDS011;13733;51.178;4.450;2022-10-16T09:27:01;9.52;;;2.08;;
25936;SDS011;13733;51.178;4.450;2022-10-16T09:29:27;8.23;;;2.25;;
25936;SDS011;13733;51.178;4.450;2022-10-16T09:31:54;14.55;;;2.45;;
25936;SDS011;13733;51.178;4.450;2022-10-16T09:36:58;7.55;;;2.00;;
25936;SDS011;13733;51.178;4.450;2022-10-16T09:39:28;10.70;;;2.40;;
25936;SDS011;13733;51.178;4.450;2022-10-16T09:41:53;7.90;;;2.00;;
25936;SDS011;13733;51.178;4.450;2022-10-16T09:44:24;9.85;;;2.45;;
25936;SDS011;13733;51.178;4.450;2022-10-16T09:50:19;9.65;;;2.20;;
25936;SDS011;13733;51.178;4.450;2022-10-16T09:52:46;7.47;;;1.88;;
25936;SDS011;13733;51.178;4.450;2022-10-16T09:55:13;8.88;;;2.50;;
25936;SDS011;13733;51.178;4.450;2022-10-16T09:57:51;9.40;;;2.33;;
25936;SDS011;13733;51.178;4.450;2022-10-16T10:00:18;9.18;;;1.90;;
25936;SDS011;13733;51.178;4.450;2022-10-16T10:02:44;8.35;;;2.35;;
25936;SDS011;13733;51.178;4.450;2022-10-16T10:05:21;7.00;;;2.55;;
25936;SDS011;13733;51.178;4.450;2022-10-16T10:08:01;8.85;;;2.35;;
25936;SDS011;13733;51.178;4.450;2022-10-16T10:10:36;6.32;;;1.98;;
25936;SDS011;13733;51.178;4.450;2022-10-16T10:13:19;6.18;;;1.88;;
25936;SDS011;13733;51.178;4.450;2022-10-16T10:15:45;8.80;;;2.42;;
25936;SDS011;13733;51.178;4.450;2022-10-16T10:18:16;8.70;;;2.60;;
25936;SDS011;13733;51.178;4.450;2022-10-16T10:20:45;9.43;;;2.28;;
25936;SDS011;13733;51.178;4.450;2022-10-16T10:23:19;11.25;;;2.30;;
25936;SDS011;13733;51.178;4.450;2022-10-16T10:33:55;14.18;;;2.40;;
25936;SDS011;13733;51.178;4.450;2022-10-16T10:36:41;10.40;;;2.08;;
25936;SDS011;13733;51.178;4.450;2022-10-16T10:39:30;13.38;;;2.85;;
25936;SDS011;13733;51.178;4.450;2022-10-16T10:42:16;9.95;;;1.95;;
25936;SDS011;13733;51.178;4.450;2022-10-16T10:45:22;16.35;;;2.40;;
25936;SDS011;13733;51.178;4.450;2022-10-16T10:48:11;10.32;;;2.20;;
25936;SDS011;13733;51.178;4.450;2022-10-16T10:50:45;6.63;;;2.00;;
25936;SDS011;13733;51.178;4.450;2022-10-16T11:01:22;6.85;;;1.90;;
25936;SDS011;13733;51.178;4.450;2022-10-16T11:06:43;9.77;;;2.58;;
25936;SDS011;13733;51.178;4.450;2022-10-16T11:09:18;6.55;;;1.90;;
25936;SDS011;13733;51.178;4.450;2022-10-16T11:11:53;7.55;;;2.00;;
25936;SDS011;13733;51.178;4.450;2022-10-16T11:14:29;5.93;;;1.60;;
25936;SDS011;13733;51.178;4.450;2022-10-16T11:16:57;7.05;;;2.08;;
25936;SDS011;13733;51.178;4.450;2022-10-16T11:22:22;10.45;;;2.47;;
25936;SDS011;13733;51.178;4.450;2022-10-16T11:25:23;9.57;;;1.90;;
25936;SDS011;13733;51.178;4.450;2022-10-16T11:31:08;5.70;;;1.77;;
25936;SDS011;13733;51.178;4.450;2022-10-16T11:36:25;9.07;;;2.30;;
25936;SDS011;13733;51.178;4.450;2022-10-16T11:41:49;8.98;;;1.88;;
25936;SDS011;13733;51.178;4.450;2022-10-16T11:47:01;7.75;;;1.70;;
25936;SDS011;13733;51.178;4.450;2022-10-16T11:49:31;6.00;;;1.92;;
25936;SDS011;13733;51.178;4.450;2022-10-16T11:52:20;8.70;;;1.92;;
25936;SDS011;13733;51.178;4.450;2022-10-16T11:54:57;5.60;;;1.70;;
25936;SDS011;13733;51.178;4.450;2022-10-16T11:57:33;5.38;;;2.00;;
25936;SDS011;13733;51.178;4.450;2022-10-16T12:00:24;6.57;;;1.83;;
25936;SDS011;13733;51.178;4.450;2022-10-16T12:03:21;10.07;;;1.80;;
25936;SDS011;13733;51.178;4.450;2022-10-16T12:08:48;6.03;;;1.85;;
25936;SDS011;13733;51.178;4.450;2022-10-16T12:14:07;6.93;;;1.65;;
25936;SDS011;13733;51.178;4.450;2022-10-16T12:17:01;6.53;;;2.10;;
25936;SDS011;13733;51.178;4.450;2022-10-16T12:19:57;6.50;;;1.92;;
25936;SDS011;13733;51.178;4.450;2022-10-16T12:22:27;10.20;;;2.08;;
25936;SDS011;13733;51.178;4.450;2022-10-16T12:24:55;5.80;;;2.05;;
25936;SDS011;13733;51.178;4.450;2022-10-16T12:29:57;10.18;;;2.42;;
25936;SDS011;13733;51.178;4.450;2022-10-16T12:32:36;5.85;;;1.67;;
25936;SDS011;13733;51.178;4.450;2022-10-16T12:35:05;6.20;;;1.88;;
25936;SDS011;13733;51.178;4.450;2022-10-16T12:37:42;5.97;;;1.75;;
25936;SDS011;13733;51.178;4.450;2022-10-16T12:40:11;8.93;;;2.05;;
25936;SDS011;13733;51.178;4.450;2022-10-16T12:42:53;5.65;;;1.85;;
25936;SDS011;13733;51.178;4.450;2022-10-16T12:45:26;5.90;;;1.58;;
25936;SDS011;13733;51.178;4.450;2022-10-16T12:47:56;5.72;;;1.67;;
25936;SDS011;13733;51.178;4.450;2022-10-16T12:50:29;6.28;;;1.60;;
25936;SDS011;13733;51.178;4.450;2022-10-16T12:52:57;6.03;;;1.55;;
25936;SDS011;13733;51.178;4.450;2022-10-16T12:55:24;4.95;;;1.60;;
25936;SDS011;13733;51.178;4.450;2022-10-16T13:00:50;6.95;;;1.98;;
25936;SDS011;13733;51.178;4.450;2022-10-16T13:03:32;8.00;;;1.70;;
25936;SDS011;13733;51.178;4.450;2022-10-16T13:14:23;4.75;;;1.52;;
25936;SDS011;13733;51.178;4.450;2022-10-16T13:22:26;5.90;;;1.42;;
25936;SDS011;13733;51.178;4.450;2022-10-16T13:27:54;4.70;;;1.50;;
25936;SDS011;13733;51.178;4.450;2022-10-16T13:30:27;5.07;;;1.77;;
25936;SDS011;13733;51.178;4.450;2022-10-16T13:33:04;7.38;;;1.60;;
25936;SDS011;13733;51.178;4.450;2022-10-16T13:35:53;5.63;;;1.35;;
25936;SDS011;13733;51.178;4.450;2022-10-16T13:38:21;4.40;;;1.30;;
25936;SDS011;13733;51.178;4.450;2022-10-16T13:43:27;4.45;;;1.30;;
25936;SDS011;13733;51.178;4.450;2022-10-16T13:46:05;3.25;;;1.42;;
25936;SDS011;13733;51.178;4.450;2022-10-16T13:48:37;3.75;;;1.50;;
25936;SDS011;13733;51.178;4.450;2022-10-16T13:51:16;5.10;;;1.38;;
25936;SDS011;13733;51.178;4.450;2022-10-16T13:56:11;2.47;;;1.25;;
25936;SDS011;13733;51.178;4.450;2022-10-16T13:58:41;6.68;;;1.45;;
25936;SDS011;13733;51.178;4.450;2022-10-16T14:03:39;6.32;;;1.70;;
25936;SDS011;13733;51.178;4.450;2022-10-16T14:06:06;3.55;;;1.30;;
25936;SDS011;13733;51.178;4.450;2022-10-16T14:08:40;4.57;;;1.30;;
25936;SDS011;13733;51.178;4.450;2022-10-16T14:11:10;6.43;;;1.50;;
25936;SDS011;13733;51.178;4.450;2022-10-16T14:13:38;2.53;;;1.20;;
25936;SDS011;13733;51.178;4.450;2022-10-16T14:16:09;7.80;;;1.40;;
25936;SDS011;13733;51.178;4.450;2022-10-16T14:18:40;6.22;;;1.85;;
25936;SDS011;13733;51.178;4.450;2022-10-16T14:21:07;5.05;;;1.45;;
25936;SDS011;13733;51.178;4.450;2022-10-16T14:23:39;4.10;;;1.38;;
25936;SDS011;13733;51.178;4.450;2022-10-16T14:26:11;5.70;;;1.60;;
25936;SDS011;13733;51.178;4.450;2022-10-16T14:28:39;5.78;;;1.80;;
25936;SDS011;13733;51.178;4.450;2022-10-16T14:31:27;4.82;;;1.50;;
25936;SDS011;13733;51.178;4.450;2022-10-16T14:33:55;4.78;;;1.70;;
25936;SDS011;13733;51.178;4.450;2022-10-16T14:36:21;9.43;;;1.50;;
25936;SDS011;13733;51.178;4.450;2022-10-16T14:38:49;5.40;;;1.55;;
25936;SDS011;13733;51.178;4.450;2022-10-16T14:41:30;5.40;;;1.52;;
25936;SDS011;13733;51.178;4.450;2022-10-16T14:44:01;3.35;;;1.27;;
25936;SDS011;13733;51.178;4.450;2022-10-16T14:46:36;4.40;;;1.38;;
25936;SDS011;13733;51.178;4.450;2022-10-16T14:51:37;4.63;;;1.73;;
25936;SDS011;13733;51.178;4.450;2022-10-16T14:54:07;5.82;;;1.50;;
25936;SDS011;13733;51.178;4.450;2022-10-16T14:56:40;5.07;;;1.40;;
25936;SDS011;13733;51.178;4.450;2022-10-16T14:59:08;5.65;;;1.20;;
25936;SDS011;13733;51.178;4.450;2022-10-16T15:02:01;4.15;;;1.42;;
25936;SDS011;13733;51.178;4.450;2022-10-16T15:04:41;4.72;;;1.50;;
25936;SDS011;13733;51.178;4.450;2022-10-16T15:07:07;2.83;;;1.20;;
25936;SDS011;13733;51.178;4.450;2022-10-16T15:09:33;2.00;;;1.13;;
25936;SDS011;13733;51.178;4.450;2022-10-16T15:11:59;3.03;;;1.25;;
25936;SDS011;13733;51.178;4.450;2022-10-16T15:14:24;4.20;;;1.20;;
25936;SDS011;13733;51.178;4.450;2022-10-16T15:16:50;3.28;;;1.40;;
25936;SDS011;13733;51.178;4.450;2022-10-16T15:19:16;6.40;;;1.20;;
25936;SDS011;13733;51.178;4.450;2022-10-16T15:21:42;5.63;;;1.50;;
25936;SDS011;13733;51.178;4.450;2022-10-16T15:24:09;4.97;;;1.88;;
25936;SDS011;13733;51.178;4.450;2022-10-16T15:26:39;5.43;;;1.40;;
25936;SDS011;13733;51.178;4.450;2022-10-16T15:29:05;6.07;;;1.60;;
25936;SDS011;13733;51.178;4.450;2022-10-16T15:31:31;5.07;;;1.85;;
25936;SDS011;13733;51.178;4.450;2022-10-16T15:33:57;5.82;;;1.80;;
25936;SDS011;13733;51.178;4.450;2022-10-16T15:36:33;7.07;;;2.10;;
25936;SDS011;13733;51.178;4.450;2022-10-16T15:39:15;3.67;;;1.83;;
25936;SDS011;13733;51.178;4.450;2022-10-16T15:41:42;3.13;;;2.05;;
25936;SDS011;13733;51.178;4.450;2022-10-16T15:44:09;4.75;;;2.30;;
25936;SDS011;13733;51.178;4.450;2022-10-16T15:46:35;7.47;;;2.70;;
25936;SDS011;13733;51.178;4.450;2022-10-16T15:49:02;5.97;;;3.20;;
25936;SDS011;13733;51.178;4.450;2022-10-16T15:51:28;6.50;;;2.53;;
25936;SDS011;13733;51.178;4.450;2022-10-16T15:53:58;8.27;;;2.35;;
25936;SDS011;13733;51.178;4.450;2022-10-16T15:56:29;4.22;;;2.50;;
25936;SDS011;13733;51.178;4.450;2022-10-16T15:58:58;5.40;;;2.17;;
25936;SDS011;13733;51.178;4.450;2022-10-16T16:01:25;5.30;;;2.53;;
25936;SDS011;13733;51.178;4.450;2022-10-16T16:03:52;5.25;;;2.00;;
25936;SDS011;13733;51.178;4.450;2022-10-16T16:06:18;6.38;;;2.22;;
25936;SDS011;13733;51.178;4.450;2022-10-16T16:08:44;3.70;;;1.77;;
25936;SDS011;13733;51.178;4.450;2022-10-16T16:11:13;2.60;;;1.70;;
25936;SDS011;13733;51.178;4.450;2022-10-16T16:16:07;4.25;;;1.90;;
25936;SDS011;13733;51.178;4.450;2022-10-16T16:18:38;6.03;;;3.08;;
25936;SDS011;13733;51.178;4.450;2022-10-16T16:21:05;5.15;;;2.53;;
25936;SDS011;13733;51.178;4.450;2022-10-16T16:23:31;4.82;;;2.42;;
25936;SDS011;13733;51.178;4.450;2022-10-16T16:26:07;12.43;;;7.28;;
25936;SDS011;13733;51.178;4.450;2022-10-16T16:28:34;13.30;;;9.27;;
25936;SDS011;13733;51.178;4.450;2022-10-16T16:31:00;14.57;;;9.05;;
25936;SDS011;13733;51.178;4.450;2022-10-16T16:33:26;12.57;;;8.07;;
25936;SDS011;13733;51.178;4.450;2022-10-16T16:35:55;11.30;;;6.57;;
25936;SDS011;13733;51.178;4.450;2022-10-16T16:38:25;11.77;;;4.88;;
25936;SDS011;13733;51.178;4.450;2022-10-16T16:40:51;7.40;;;4.55;;
25936;SDS011;13733;51.178;4.450;2022-10-16T16:43:17;9.82;;;4.50;;
25936;SDS011;13733;51.178;4.450;2022-10-16T16:45:44;7.97;;;4.20;;
25936;SDS011;13733;51.178;4.450;2022-10-16T16:48:10;9.95;;;4.15;;
25936;SDS011;13733;51.178;4.450;2022-10-16T16:50:36;6.38;;;3.72;;
25936;SDS011;13733;51.178;4.450;2022-10-16T16:53:02;11.90;;;3.58;;
25936;SDS011;13733;51.178;4.450;2022-10-16T16:55:28;5.45;;;2.80;;